TimeCDT,TemperatureF,Dew PointF,Humidity,Sea Level PressureIn,VisibilityMPH,Wind Direction,Wind SpeedMPH,Gust SpeedMPH,PrecipitationIn,Events,Conditions,WindDirDegrees,DateUTC
12:12 AM,31.5,28.9,90,29.92,10.0,WNW,8.1,-,N/A,,Overcast,300,2013-10-22 05:12:00
12:32 AM,31.5,28.9,90,29.92,10.0,WNW,8.1,-,N/A,,Overcast,300,2013-10-22 05:32:00
12:52 AM,31.3,28.9,91,29.92,10.0,NW,8.1,-,N/A,,Overcast,310,2013-10-22 05:52:00
1:12 AM,30.9,28.4,90,29.93,10.0,NW,8.1,-,N/A,,Overcast,310,2013-10-22 06:12:00
1:32 AM,30.2,28.4,93,29.93,10.0,WNW,9.2,-,N/A,,Overcast,300,2013-10-22 06:32:00
1:52 AM,30.6,28.4,92,29.93,10.0,WNW,6.9,-,N/A,,Overcast,300,2013-10-22 06:52:00
2:12 AM,30.2,28.4,93,29.93,10.0,NW,6.9,-,N/A,,Overcast,310,2013-10-22 07:12:00
2:32 AM,30.2,28.2,92,29.93,10.0,WNW,6.9,-,N/A,,Overcast,300,2013-10-22 07:32:00
2:51 AM,30.6,28.4,92,29.93,10.0,West,5.8,-,N/A,,Overcast,280,2013-10-22 07:51:00
3:12 AM,30.6,28.6,92,29.93,10.0,NW,5.8,-,N/A,,Overcast,310,2013-10-22 08:12:00
3:32 AM,30.9,29.1,93,29.93,10.0,NW,9.2,-,N/A,,Overcast,310,2013-10-22 08:32:00
3:52 AM,30.9,29.1,93,29.94,10.0,NW,8.1,-,N/A,,Overcast,310,2013-10-22 08:52:00
4:12 AM,31.1,29.3,93,29.93,10.0,NW,8.1,-,N/A,,Overcast,310,2013-10-22 09:12:00
4:32 AM,31.1,29.3,93,29.94,7.0,WNW,6.9,-,N/A,,Overcast,290,2013-10-22 09:32:00
4:52 AM,31.1,29.7,94,29.94,10.0,WNW,9.2,-,N/A,Snow,Light Snow,300,2013-10-22 09:52:00
5:12 AM,31.1,29.8,95,29.94,10.0,WNW,8.1,-,N/A,,Overcast,300,2013-10-22 10:12:00
5:32 AM,31.1,29.5,94,29.94,10.0,NW,6.9,-,N/A,,Overcast,310,2013-10-22 10:32:00
5:52 AM,31.1,29.3,93,29.94,10.0,WNW,9.2,-,N/A,Snow,Light Snow,300,2013-10-22 10:52:00
6:12 AM,31.1,29.7,94,29.95,10.0,NW,8.1,-,N/A,,Overcast,310,2013-10-22 11:12:00
6:32 AM,31.1,29.8,95,29.95,4.0,NW,9.2,-,N/A,Snow,Light Snow,310,2013-10-22 11:32:00
6:52 AM,31.1,29.8,95,29.96,5.0,NW,6.9,-,N/A,Snow,Light Snow,310,2013-10-22 11:52:00
7:12 AM,31.1,30.0,96,29.96,2.0,NW,4.6,-,N/A,Snow,Light Snow,320,2013-10-22 12:12:00
7:32 AM,30.9,30.2,97,29.97,1.5,NW,5.8,-,N/A,Snow,Light Snow,310,2013-10-22 12:32:00
7:51 AM,30.9,30.2,97,29.97,5.0,NW,5.8,-,N/A,Snow,Light Snow,310,2013-10-22 12:51:00
8:12 AM,30.9,30.2,97,29.98,1.8,NW,5.8,-,N/A,Snow,Light Snow,310,2013-10-22 13:12:00
8:32 AM,30.9,30.2,97,29.98,1.8,NW,4.6,-,N/A,Snow,Light Snow,310,2013-10-22 13:32:00
8:52 AM,31.1,30.6,98,29.99,10.0,NW,4.6,-,N/A,,Overcast,310,2013-10-22 13:52:00
9:12 AM,31.5,30.6,96,29.99,10.0,NW,3.5,-,N/A,,Overcast,320,2013-10-22 14:12:00
9:32 AM,31.8,30.6,95,30.00,10.0,NW,3.5,-,N/A,,Overcast,310,2013-10-22 14:32:00
9:52 AM,32.0,30.4,94,30.00,10.0,WNW,4.6,-,N/A,,Overcast,300,2013-10-22 14:52:00
10:12 AM,32.2,30.0,92,30.00,10.0,North,3.5,-,N/A,,Overcast,360,2013-10-22 15:12:00
10:32 AM,32.4,30.2,92,30.00,10.0,North,3.5,-,N/A,,Overcast,350,2013-10-22 15:32:00
10:51 AM,32.2,30.4,93,30.01,2.0,NNW,4.6,-,N/A,Snow,Light Snow,330,2013-10-22 15:51:00
11:12 AM,33.1,30.2,89,30.01,10.0,NNW,4.6,-,N/A,,Overcast,340,2013-10-22 16:12:00
11:32 AM,33.6,29.1,84,30.01,10.0,Calm,Calm,-,N/A,,Overcast,0,2013-10-22 16:32:00
11:51 AM,34.2,28.6,80,30.01,7.0,NE,4.6,-,N/A,,Overcast,40,2013-10-22 16:51:00
12:12 PM,34.7,28.2,77,30.01,7.0,NNE,4.6,-,N/A,,Overcast,20,2013-10-22 17:12:00
12:32 PM,35.1,27.5,74,30.00,10.0,North,4.6,-,N/A,,Overcast,350,2013-10-22 17:32:00
12:52 PM,35.2,27.5,73,30.00,10.0,NW,5.8,-,N/A,,Overcast,310,2013-10-22 17:52:00
1:12 PM,36.5,28.9,74,30.00,10.0,NNW,6.9,-,N/A,,Overcast,330,2013-10-22 18:12:00
1:32 PM,36.1,28.8,75,30.00,7.0,West,8.1,-,N/A,,Overcast,260,2013-10-22 18:32:00
1:52 PM,34.9,31.1,86,30.00,7.0,West,9.2,-,N/A,,Overcast,260,2013-10-22 18:52:00
2:12 PM,35.1,31.5,87,30.00,10.0,West,9.2,-,N/A,,Overcast,270,2013-10-22 19:12:00
2:32 PM,34.2,32.2,92,29.99,5.0,NW,6.9,-,N/A,Snow,Light Snow,310,2013-10-22 19:32:00
2:52 PM,32.5,30.9,94,29.99,3.0,West,8.1,-,N/A,Snow,Light Snow,280,2013-10-22 19:52:00
3:12 PM,35.6,30.9,83,29.99,10.0,WNW,9.2,-,N/A,,Scattered Clouds,300,2013-10-22 20:12:00
3:32 PM,36.3,31.3,82,29.99,7.0,NW,11.5,-,N/A,,Scattered Clouds,320,2013-10-22 20:32:00
3:52 PM,34.0,31.1,89,30.00,4.0,NNW,11.5,-,N/A,Snow,Light Snow,330,2013-10-22 20:52:00
4:12 PM,31.8,30.6,95,30.00,0.5,NW,6.9,-,N/A,Snow,Light Snow,320,2013-10-22 21:12:00
4:32 PM,33.1,31.1,92,30.00,7.0,NW,8.1,-,N/A,,Overcast,310,2013-10-22 21:32:00
4:52 PM,32.5,30.4,92,30.00,7.0,NW,6.9,-,N/A,,Overcast,310,2013-10-22 21:52:00
5:12 PM,32.5,30.7,93,30.00,7.0,West,4.6,-,N/A,,Mostly Cloudy,270,2013-10-22 22:12:00
5:32 PM,32.9,31.1,93,30.00,10.0,WNW,4.6,-,N/A,,Overcast,290,2013-10-22 22:32:00
5:52 PM,32.4,30.9,94,30.00,7.0,West,3.5,-,N/A,,Overcast,280,2013-10-22 22:52:00
6:12 PM,32.4,30.6,93,30.00,7.0,West,4.6,-,N/A,,Overcast,280,2013-10-22 23:12:00
6:32 PM,32.4,30.2,92,30.00,7.0,Calm,Calm,-,N/A,,Overcast,0,2013-10-22 23:32:00
6:51 PM,32.0,30.2,93,30.00,10.0,Calm,Calm,-,N/A,,Overcast,0,2013-10-22 23:51:00
7:12 PM,32.0,30.2,93,30.00,7.0,West,4.6,-,N/A,,Overcast,280,2013-10-23 00:12:00
7:32 PM,32.0,30.2,93,30.00,10.0,West,4.6,-,N/A,,Overcast,280,2013-10-23 00:32:00
7:52 PM,32.0,29.5,90,30.00,7.0,West,5.8,-,N/A,,Overcast,280,2013-10-23 00:52:00
8:12 PM,32.0,29.8,92,30.00,7.0,West,5.8,-,N/A,,Overcast,280,2013-10-23 01:12:00
8:32 PM,32.0,30.2,93,30.00,10.0,WNW,5.8,-,N/A,,Overcast,290,2013-10-23 01:32:00
8:52 PM,31.8,29.3,90,30.00,10.0,NW,9.2,-,N/A,,Overcast,310,2013-10-23 01:52:00
9:12 PM,31.5,29.1,91,30.00,10.0,WNW,6.9,-,N/A,,Overcast,300,2013-10-23 02:12:00
9:32 PM,31.1,28.4,90,30.00,10.0,NW,6.9,-,N/A,,Overcast,310,2013-10-23 02:32:00
9:52 PM,31.1,28.2,89,30.00,10.0,WNW,5.8,-,N/A,,Overcast,300,2013-10-23 02:52:00
10:12 PM,30.7,28.2,90,30.00,10.0,WNW,5.8,-,N/A,,Overcast,300,2013-10-23 03:12:00
10:32 PM,30.6,28.0,90,30.00,10.0,WNW,5.8,-,N/A,,Overcast,300,2013-10-23 03:32:00
10:52 PM,30.7,28.2,90,30.00,10.0,West,5.8,-,N/A,,Overcast,280,2013-10-23 03:52:00
11:12 PM,30.6,28.0,90,30.00,7.0,West,5.8,-,N/A,,Overcast,280,2013-10-23 04:12:00
11:32 PM,30.2,28.2,92,30.00,10.0,WNW,5.8,-,N/A,,Overcast,290,2013-10-23 04:32:00
11:51 PM,30.2,28.4,93,29.99,7.0,West,5.8,-,N/A,,Overcast,280,2013-10-23 04:51:00